sensor_id;sensor_type;location;lat;lon;timestamp;P1;durP1;ratioP1;P2;durP2;ratioP2
8462;SDS011;4268;52.506;13.462;2023-08-07T00:00:54;4.63;;;4.33;;
8462;SDS011;4268;52.506;13.462;2023-08-07T00:03:19;4.00;;;3.80;;
8462;SDS011;4268;52.506;13.462;2023-08-07T00:05:48;4.87;;;4.47;;
8462;SDS011;4268;52.506;13.462;2023-08-07T00:08:13;4.27;;;3.97;;
8462;SDS011;4268;52.506;13.462;2023-08-07T00:10:39;4.87;;;4.53;;
8462;SDS011;4268;52.506;13.462;2023-08-07T00:13:05;4.73;;;4.43;;
8462;SDS011;4268;52.506;13.462;2023-08-07T00:15:30;4.23;;;4.03;;
8462;SDS011;4268;52.506;13.462;2023-08-07T00:17:58;4.70;;;4.40;;
8462;SDS011;4268;52.506;13.462;2023-08-07T00:20:24;4.50;;;4.20;;
8462;SDS011;4268;52.506;13.462;2023-08-07T00:22:49;4.13;;;3.93;;
8462;SDS011;4268;52.506;13.462;2023-08-07T00:25:15;4.50;;;4.20;;
8462;SDS011;4268;52.506;13.462;2023-08-07T00:27:40;4.57;;;4.27;;
8462;SDS011;4268;52.506;13.462;2023-08-07T00:30:06;4.90;;;4.60;;
8462;SDS011;4268;52.506;13.462;2023-08-07T00:32:32;4.97;;;4.57;;
8462;SDS011;4268;52.506;13.462;2023-08-07T00:34:57;5.00;;;4.70;;
8462;SDS011;4268;52.506;13.462;2023-08-07T00:37:22;5.23;;;4.83;;
8462;SDS011;4268;52.506;13.462;2023-08-07T00:39:48;5.30;;;5.00;;
8462;SDS011;4268;52.506;13.462;2023-08-07T00:42:13;5.20;;;4.80;;
8462;SDS011;4268;52.506;13.462;2023-08-07T00:44:39;5.53;;;5.03;;
8462;SDS011;4268;52.506;13.462;2023-08-07T00:47:05;4.93;;;4.63;;
8462;SDS011;4268;52.506;13.462;2023-08-07T00:49:31;4.80;;;4.40;;
8462;SDS011;4268;52.506;13.462;2023-08-07T00:51:57;4.57;;;4.17;;
8462;SDS011;4268;52.506;13.462;2023-08-07T00:54:23;4.80;;;4.40;;
8462;SDS011;4268;52.506;13.462;2023-08-07T00:56:50;4.50;;;4.20;;
8462;SDS011;4268;52.506;13.462;2023-08-07T00:59:16;4.47;;;4.17;;
8462;SDS011;4268;52.506;13.462;2023-08-07T01:01:43;4.13;;;3.83;;
8462;SDS011;4268;52.506;13.462;2023-08-07T01:04:09;4.80;;;4.47;;
8462;SDS011;4268;52.506;13.462;2023-08-07T01:06:35;4.60;;;4.20;;
8462;SDS011;4268;52.506;13.462;2023-08-07T01:09:00;4.97;;;4.60;;
8462;SDS011;4268;52.506;13.462;2023-08-07T01:14:25;4.83;;;4.47;;
8462;SDS011;4268;52.506;13.462;2023-08-07T01:17:09;4.27;;;3.90;;
8462;SDS011;4268;52.506;13.462;2023-08-07T01:19:38;4.30;;;4.03;;
8462;SDS011;4268;52.506;13.462;2023-08-07T01:22:14;4.50;;;4.20;;
8462;SDS011;4268;52.506;13.462;2023-08-07T01:24:45;4.43;;;4.13;;
8462;SDS011;4268;52.506;13.462;2023-08-07T01:27:15;4.60;;;4.30;;
8462;SDS011;4268;52.506;13.462;2023-08-07T01:32:29;5.07;;;4.67;;
8462;SDS011;4268;52.506;13.462;2023-08-07T01:35:12;5.10;;;4.70;;
8462;SDS011;4268;52.506;13.462;2023-08-07T01:37:41;5.20;;;4.90;;
8462;SDS011;4268;52.506;13.462;2023-08-07T01:40:09;5.00;;;4.70;;
8462;SDS011;4268;52.506;13.462;2023-08-07T01:42:36;5.00;;;4.60;;
8462;SDS011;4268;52.506;13.462;2023-08-07T01:45:03;4.77;;;4.47;;
8462;SDS011;4268;52.506;13.462;2023-08-07T01:47:29;4.80;;;4.50;;
8462;SDS011;4268;52.506;13.462;2023-08-07T01:49:55;5.03;;;4.63;;
8462;SDS011;4268;52.506;13.462;2023-08-07T01:52:21;4.90;;;4.50;;
8462;SDS011;4268;52.506;13.462;2023-08-07T01:54:47;4.60;;;4.30;;
8462;SDS011;4268;52.506;13.462;2023-08-07T01:57:13;5.27;;;4.63;;
8462;SDS011;4268;52.506;13.462;2023-08-07T01:59:38;5.23;;;4.70;;
8462;SDS011;4268;52.506;13.462;2023-08-07T02:02:04;4.57;;;4.27;;
8462;SDS011;4268;52.506;13.462;2023-08-07T02:04:30;9.90;;;9.33;;
8462;SDS011;4268;52.506;13.462;2023-08-07T02:06:56;5.57;;;5.23;;
8462;SDS011;4268;52.506;13.462;2023-08-07T02:09:22;4.87;;;4.57;;
8462;SDS011;4268;52.506;13.462;2023-08-07T02:11:47;4.17;;;3.87;;
8462;SDS011;4268;52.506;13.462;2023-08-07T02:14:13;5.13;;;4.63;;
8462;SDS011;4268;52.506;13.462;2023-08-07T02:16:39;4.70;;;4.30;;
8462;SDS011;4268;52.506;13.462;2023-08-07T02:19:04;4.50;;;4.20;;
8462;SDS011;4268;52.506;13.462;2023-08-07T02:21:31;4.80;;;4.50;;
8462;SDS011;4268;52.506;13.462;2023-08-07T02:23:56;4.73;;;4.43;;
8462;SDS011;4268;52.506;13.462;2023-08-07T02:26:22;4.40;;;4.10;;
8462;SDS011;4268;52.506;13.462;2023-08-07T02:28:48;6.30;;;5.80;;
8462;SDS011;4268;52.506;13.462;2023-08-07T02:31:13;4.73;;;4.33;;
8462;SDS011;4268;52.506;13.462;2023-08-07T02:33:39;4.23;;;3.93;;
8462;SDS011;4268;52.506;13.462;2023-08-07T02:36:06;4.47;;;3.90;;
8462;SDS011;4268;52.506;13.462;2023-08-07T02:38:32;4.77;;;4.37;;
8462;SDS011;4268;52.506;13.462;2023-08-07T02:40:57;5.03;;;4.53;;
8462;SDS011;4268;52.506;13.462;2023-08-07T02:43:23;4.40;;;4.10;;
8462;SDS011;4268;52.506;13.462;2023-08-07T02:45:48;5.10;;;4.40;;
8462;SDS011;4268;52.506;13.462;2023-08-07T02:48:14;4.67;;;4.33;;
8462;SDS011;4268;52.506;13.462;2023-08-07T02:50:40;5.30;;;4.90;;
8462;SDS011;4268;52.506;13.462;2023-08-07T02:53:05;5.50;;;5.10;;
8462;SDS011;4268;52.506;13.462;2023-08-07T02:55:31;5.80;;;5.40;;
8462;SDS011;4268;52.506;13.462;2023-08-07T02:57:56;6.03;;;5.63;;
8462;SDS011;4268;52.506;13.462;2023-08-07T03:00:22;6.10;;;5.60;;
8462;SDS011;4268;52.506;13.462;2023-08-07T03:02:47;5.90;;;5.50;;
8462;SDS011;4268;52.506;13.462;2023-08-07T03:05:13;6.73;;;5.70;;
8462;SDS011;4268;52.506;13.462;2023-08-07T03:07:39;6.83;;;5.83;;
8462;SDS011;4268;52.506;13.462;2023-08-07T03:10:05;6.17;;;5.67;;
8462;SDS011;4268;52.506;13.462;2023-08-07T03:12:32;6.50;;;6.00;;
8462;SDS011;4268;52.506;13.462;2023-08-07T03:14:57;6.27;;;5.77;;
8462;SDS011;4268;52.506;13.462;2023-08-07T03:17:23;7.33;;;6.63;;
8462;SDS011;4268;52.506;13.462;2023-08-07T03:19:49;8.20;;;7.60;;
8462;SDS011;4268;52.506;13.462;2023-08-07T03:22:14;7.67;;;7.07;;
8462;SDS011;4268;52.506;13.462;2023-08-07T03:24:40;8.47;;;7.77;;
8462;SDS011;4268;52.506;13.462;2023-08-07T03:27:05;9.20;;;8.60;;
8462;SDS011;4268;52.506;13.462;2023-08-07T03:29:31;9.40;;;8.80;;
8462;SDS011;4268;52.506;13.462;2023-08-07T03:31:57;9.53;;;8.93;;
8462;SDS011;4268;52.506;13.462;2023-08-07T03:34:22;9.83;;;9.13;;
8462;SDS011;4268;52.506;13.462;2023-08-07T03:36:48;9.13;;;8.53;;
8462;SDS011;4268;52.506;13.462;2023-08-07T03:39:14;9.70;;;9.10;;
8462;SDS011;4268;52.506;13.462;2023-08-07T03:41:39;11.17;;;10.27;;
8462;SDS011;4268;52.506;13.462;2023-08-07T03:44:05;10.43;;;9.70;;
8462;SDS011;4268;52.506;13.462;2023-08-07T03:46:31;10.70;;;10.00;;
8462;SDS011;4268;52.506;13.462;2023-08-07T03:48:57;10.63;;;9.93;;
8462;SDS011;4268;52.506;13.462;2023-08-07T03:51:23;9.80;;;9.20;;
8462;SDS011;4268;52.506;13.462;2023-08-07T03:53:48;10.43;;;9.60;;
8462;SDS011;4268;52.506;13.462;2023-08-07T03:56:14;9.60;;;9.00;;
8462;SDS011;4268;52.506;13.462;2023-08-07T03:58:40;10.40;;;9.60;;
8462;SDS011;4268;52.506;13.462;2023-08-07T04:01:06;10.17;;;9.43;;
8462;SDS011;4268;52.506;13.462;2023-08-07T04:03:32;10.13;;;9.53;;
8462;SDS011;4268;52.506;13.462;2023-08-07T04:05:58;10.07;;;9.27;;
8462;SDS011;4268;52.506;13.462;2023-08-07T04:08:25;9.70;;;9.10;;
8462;SDS011;4268;52.506;13.462;2023-08-07T04:13:27;9.27;;;8.63;;
8462;SDS011;4268;52.506;13.462;2023-08-07T04:15:53;8.93;;;8.33;;
8462;SDS011;4268;52.506;13.462;2023-08-07T04:18:18;8.63;;;8.03;;
8462;SDS011;4268;52.506;13.462;2023-08-07T04:20:50;8.77;;;8.23;;
8462;SDS011;4268;52.506;13.462;2023-08-07T04:23:19;8.13;;;7.53;;
8462;SDS011;4268;52.506;13.462;2023-08-07T04:25:49;7.77;;;7.27;;
8462;SDS011;4268;52.506;13.462;2023-08-07T04:28:16;9.83;;;9.03;;
8462;SDS011;4268;52.506;13.462;2023-08-07T04:30:41;7.17;;;6.57;;
8462;SDS011;4268;52.506;13.462;2023-08-07T04:33:09;7.00;;;6.50;;
8462;SDS011;4268;52.506;13.462;2023-08-07T04:35:35;6.30;;;5.80;;
8462;SDS011;4268;52.506;13.462;2023-08-07T04:38:00;6.20;;;5.70;;
8462;SDS011;4268;52.506;13.462;2023-08-07T04:40:27;6.10;;;5.60;;
8462;SDS011;4268;52.506;13.462;2023-08-07T04:42:53;5.80;;;5.03;;
8462;SDS011;4268;52.506;13.462;2023-08-07T04:45:19;5.80;;;5.40;;
8462;SDS011;4268;52.506;13.462;2023-08-07T04:47:45;6.00;;;5.50;;
8462;SDS011;4268;52.506;13.462;2023-08-07T04:50:12;5.73;;;5.33;;
8462;SDS011;4268;52.506;13.462;2023-08-07T04:52:38;5.80;;;5.40;;
8462;SDS011;4268;52.506;13.462;2023-08-07T04:55:04;5.50;;;5.10;;
8462;SDS011;4268;52.506;13.462;2023-08-07T04:57:30;5.00;;;4.60;;
8462;SDS011;4268;52.506;13.462;2023-08-07T04:59:55;4.80;;;4.50;;
8462;SDS011;4268;52.506;13.462;2023-08-07T05:02:21;5.83;;;4.60;;
8462;SDS011;4268;52.506;13.462;2023-08-07T05:04:47;4.43;;;4.10;;
8462;SDS011;4268;52.506;13.462;2023-08-07T05:07:12;4.60;;;4.30;;
8462;SDS011;4268;52.506;13.462;2023-08-07T05:09:38;4.53;;;3.90;;
8462;SDS011;4268;52.506;13.462;2023-08-07T05:12:04;4.03;;;3.67;;
8462;SDS011;4268;52.506;13.462;2023-08-07T05:14:31;3.97;;;3.67;;
8462;SDS011;4268;52.506;13.462;2023-08-07T05:16:57;4.60;;;4.10;;
8462;SDS011;4268;52.506;13.462;2023-08-07T05:19:23;4.30;;;4.00;;
8462;SDS011;4268;52.506;13.462;2023-08-07T05:21:48;4.40;;;4.00;;
8462;SDS011;4268;52.506;13.462;2023-08-07T05:24:16;4.90;;;4.50;;
8462;SDS011;4268;52.506;13.462;2023-08-07T05:26:42;4.80;;;4.40;;
8462;SDS011;4268;52.506;13.462;2023-08-07T05:29:07;5.63;;;5.13;;
8462;SDS011;4268;52.506;13.462;2023-08-07T05:31:33;5.17;;;4.77;;
8462;SDS011;4268;52.506;13.462;2023-08-07T05:33:59;5.00;;;4.50;;
8462;SDS011;4268;52.506;13.462;2023-08-07T05:36:25;4.80;;;4.40;;
8462;SDS011;4268;52.506;13.462;2023-08-07T05:38:50;4.80;;;4.40;;
8462;SDS011;4268;52.506;13.462;2023-08-07T05:41:16;4.90;;;4.60;;
8462;SDS011;4268;52.506;13.462;2023-08-07T05:43:42;5.20;;;4.80;;
8462;SDS011;4268;52.506;13.462;2023-08-07T05:46:07;5.27;;;4.87;;
8462;SDS011;4268;52.506;13.462;2023-08-07T05:48:33;5.10;;;4.70;;
8462;SDS011;4268;52.506;13.462;2023-08-07T05:50:59;5.00;;;4.70;;
8462;SDS011;4268;52.506;13.462;2023-08-07T05:53:25;5.00;;;4.63;;
8462;SDS011;4268;52.506;13.462;2023-08-07T05:55:50;5.40;;;5.10;;
8462;SDS011;4268;52.506;13.462;2023-08-07T05:58:16;7.10;;;6.67;;
8462;SDS011;4268;52.506;13.462;2023-08-07T06:00:41;7.70;;;7.20;;
8462;SDS011;4268;52.506;13.462;2023-08-07T06:03:07;5.40;;;5.00;;
8462;SDS011;4268;52.506;13.462;2023-08-07T06:05:33;5.00;;;4.70;;
8462;SDS011;4268;52.506;13.462;2023-08-07T06:07:59;4.70;;;4.30;;
8462;SDS011;4268;52.506;13.462;2023-08-07T06:10:25;4.30;;;3.93;;
8462;SDS011;4268;52.506;13.462;2023-08-07T06:12:51;3.70;;;3.50;;
8462;SDS011;4268;52.506;13.462;2023-08-07T06:15:17;3.97;;;3.63;;
8462;SDS011;4268;52.506;13.462;2023-08-07T06:17:43;4.23;;;3.93;;
8462;SDS011;4268;52.506;13.462;2023-08-07T06:20:08;3.70;;;3.40;;
8462;SDS011;4268;52.506;13.462;2023-08-07T06:22:36;3.40;;;3.20;;
8462;SDS011;4268;52.506;13.462;2023-08-07T06:25:01;4.77;;;3.30;;
8462;SDS011;4268;52.506;13.462;2023-08-07T06:27:27;3.93;;;3.60;;
8462;SDS011;4268;52.506;13.462;2023-08-07T06:29:52;3.20;;;3.00;;
8462;SDS011;4268;52.506;13.462;2023-08-07T06:32:18;3.40;;;3.10;;
8462;SDS011;4268;52.506;13.462;2023-08-07T06:34:44;3.47;;;3.17;;
8462;SDS011;4268;52.506;13.462;2023-08-07T06:37:11;3.43;;;3.23;;
8462;SDS011;4268;52.506;13.462;2023-08-07T06:39:37;3.40;;;3.20;;
8462;SDS011;4268;52.506;13.462;2023-08-07T06:42:02;3.30;;;3.10;;
8462;SDS011;4268;52.506;13.462;2023-08-07T06:44:29;3.30;;;3.10;;
8462;SDS011;4268;52.506;13.462;2023-08-07T06:46:54;3.70;;;3.40;;
8462;SDS011;4268;52.506;13.462;2023-08-07T06:49:20;4.83;;;3.23;;
8462;SDS011;4268;52.506;13.462;2023-08-07T06:51:46;3.53;;;3.23;;
8462;SDS011;4268;52.506;13.462;2023-08-07T06:54:11;3.43;;;3.23;;
8462;SDS011;4268;52.506;13.462;2023-08-07T06:56:37;5.70;;;3.50;;
8462;SDS011;4268;52.506;13.462;2023-08-07T06:59:05;3.80;;;3.60;;
8462;SDS011;4268;52.506;13.462;2023-08-07T07:01:31;3.90;;;3.60;;
8462;SDS011;4268;52.506;13.462;2023-08-07T07:03:57;4.43;;;3.90;;
8462;SDS011;4268;52.506;13.462;2023-08-07T07:06:22;3.87;;;3.53;;
8462;SDS011;4268;52.506;13.462;2023-08-07T07:08:50;4.10;;;3.80;;
8462;SDS011;4268;52.506;13.462;2023-08-07T07:11:19;5.47;;;5.07;;
8462;SDS011;4268;52.506;13.462;2023-08-07T07:13:45;3.50;;;3.30;;
8462;SDS011;4268;52.506;13.462;2023-08-07T07:16:11;3.20;;;3.00;;
8462;SDS011;4268;52.506;13.462;2023-08-07T07:18:39;3.00;;;2.80;;
8462;SDS011;4268;52.506;13.462;2023-08-07T07:21:04;3.00;;;2.80;;
8462;SDS011;4268;52.506;13.462;2023-08-07T07:23:30;3.10;;;2.87;;
8462;SDS011;4268;52.506;13.462;2023-08-07T07:25:56;3.20;;;2.90;;
8462;SDS011;4268;52.506;13.462;2023-08-07T07:28:22;3.30;;;3.00;;
8462;SDS011;4268;52.506;13.462;2023-08-07T07:30:49;3.33;;;3.13;;
8462;SDS011;4268;52.506;13.462;2023-08-07T07:33:15;3.47;;;3.17;;
8462;SDS011;4268;52.506;13.462;2023-08-07T07:35:41;3.87;;;2.67;;
8462;SDS011;4268;52.506;13.462;2023-08-07T07:38:07;4.40;;;2.77;;
8462;SDS011;4268;52.506;13.462;2023-08-07T07:40:33;3.00;;;2.70;;
8462;SDS011;4268;52.506;13.462;2023-08-07T07:42:59;2.73;;;2.50;;
8462;SDS011;4268;52.506;13.462;2023-08-07T07:45:25;2.63;;;2.43;;
8462;SDS011;4268;52.506;13.462;2023-08-07T07:47:50;4.73;;;2.70;;
8462;SDS011;4268;52.506;13.462;2023-08-07T07:50:16;2.60;;;2.50;;
8462;SDS011;4268;52.506;13.462;2023-08-07T07:52:42;2.87;;;2.60;;
8462;SDS011;4268;52.506;13.462;2023-08-07T07:55:08;3.10;;;2.80;;
8462;SDS011;4268;52.506;13.462;2023-08-07T07:57:34;3.53;;;2.97;;
8462;SDS011;4268;52.506;13.462;2023-08-07T08:00:00;3.27;;;2.73;;
8462;SDS011;4268;52.506;13.462;2023-08-07T08:02:27;2.57;;;2.37;;
8462;SDS011;4268;52.506;13.462;2023-08-07T08:04:53;2.90;;;2.70;;
8462;SDS011;4268;52.506;13.462;2023-08-07T08:07:18;2.87;;;2.70;;
8462;SDS011;4268;52.506;13.462;2023-08-07T08:09:44;2.93;;;2.73;;
8462;SDS011;4268;52.506;13.462;2023-08-07T08:12:10;4.53;;;3.20;;
8462;SDS011;4268;52.506;13.462;2023-08-07T08:14:36;2.60;;;2.50;;
8462;SDS011;4268;52.506;13.462;2023-08-07T08:17:01;2.93;;;2.73;;
8462;SDS011;4268;52.506;13.462;2023-08-07T08:19:27;2.80;;;2.60;;
8462;SDS011;4268;52.506;13.462;2023-08-07T08:21:53;2.87;;;2.67;;
8462;SDS011;4268;52.506;13.462;2023-08-07T08:24:18;3.10;;;2.80;;
8462;SDS011;4268;52.506;13.462;2023-08-07T08:26:44;2.90;;;2.70;;
8462;SDS011;4268;52.506;13.462;2023-08-07T08:29:10;2.90;;;2.70;;
8462;SDS011;4268;52.506;13.462;2023-08-07T08:31:39;3.27;;;2.77;;
8462;SDS011;4268;52.506;13.462;2023-08-07T08:34:05;2.83;;;2.70;;
8462;SDS011;4268;52.506;13.462;2023-08-07T08:36:31;3.13;;;2.90;;
8462;SDS011;4268;52.506;13.462;2023-08-07T08:38:56;3.10;;;2.70;;
8462;SDS011;4268;52.506;13.462;2023-08-07T08:41:22;2.93;;;2.80;;
8462;SDS011;4268;52.506;13.462;2023-08-07T08:43:48;2.97;;;2.73;;
8462;SDS011;4268;52.506;13.462;2023-08-07T08:46:17;3.73;;;2.83;;
8462;SDS011;4268;52.506;13.462;2023-08-07T08:48:48;3.73;;;2.80;;
8462;SDS011;4268;52.506;13.462;2023-08-07T08:51:16;3.00;;;2.80;;
8462;SDS011;4268;52.506;13.462;2023-08-07T08:53:43;2.83;;;2.63;;
8462;SDS011;4268;52.506;13.462;2023-08-07T08:56:11;2.90;;;2.70;;
8462;SDS011;4268;52.506;13.462;2023-08-07T08:58:37;3.27;;;2.97;;
8462;SDS011;4268;52.506;13.462;2023-08-07T09:01:04;3.13;;;2.77;;
8462;SDS011;4268;52.506;13.462;2023-08-07T09:03:31;3.33;;;2.93;;
8462;SDS011;4268;52.506;13.462;2023-08-07T09:05:58;2.87;;;2.67;;
8462;SDS011;4268;52.506;13.462;2023-08-07T09:08:25;2.87;;;2.60;;
8462;SDS011;4268;52.506;13.462;2023-08-07T09:10:54;3.20;;;2.90;;
8462;SDS011;4268;52.506;13.462;2023-08-07T09:13:21;2.70;;;2.60;;
8462;SDS011;4268;52.506;13.462;2023-08-07T09:15:48;2.90;;;2.70;;
8462;SDS011;4268;52.506;13.462;2023-08-07T09:18:15;2.70;;;2.50;;
8462;SDS011;4268;52.506;13.462;2023-08-07T09:20:42;3.27;;;2.90;;
8462;SDS011;4268;52.506;13.462;2023-08-07T09:23:08;3.80;;;3.03;;
8462;SDS011;4268;52.506;13.462;2023-08-07T09:25:33;3.13;;;2.90;;
8462;SDS011;4268;52.506;13.462;2023-08-07T09:28:03;3.10;;;2.90;;
8462;SDS011;4268;52.506;13.462;2023-08-07T09:30:30;2.80;;;2.60;;
8462;SDS011;4268;52.506;13.462;2023-08-07T09:32:59;3.20;;;2.70;;
8462;SDS011;4268;52.506;13.462;2023-08-07T09:35:26;2.60;;;2.50;;
8462;SDS011;4268;52.506;13.462;2023-08-07T09:37:53;3.00;;;2.80;;
8462;SDS011;4268;52.506;13.462;2023-08-07T09:40:21;3.00;;;2.80;;
8462;SDS011;4268;52.506;13.462;2023-08-07T09:42:51;3.37;;;3.03;;
8462;SDS011;4268;52.506;13.462;2023-08-07T09:45:21;3.20;;;2.90;;
8462;SDS011;4268;52.506;13.462;2023-08-07T09:48:00;3.10;;;2.90;;
8462;SDS011;4268;52.506;13.462;2023-08-07T09:50:27;3.03;;;2.80;;
8462;SDS011;4268;52.506;13.462;2023-08-07T09:52:53;3.30;;;3.00;;
8462;SDS011;4268;52.506;13.462;2023-08-07T09:55:20;3.07;;;2.87;;
8462;SDS011;4268;52.506;13.462;2023-08-07T09:57:46;2.80;;;2.70;;
8462;SDS011;4268;52.506;13.462;2023-08-07T10:00:12;2.80;;;2.60;;
8462;SDS011;4268;52.506;13.462;2023-08-07T10:02:40;3.07;;;2.87;;
8462;SDS011;4268;52.506;13.462;2023-08-07T10:05:10;2.97;;;2.50;;
8462;SDS011;4268;52.506;13.462;2023-08-07T10:07:39;3.40;;;3.17;;
8462;SDS011;4268;52.506;13.462;2023-08-07T10:10:05;2.83;;;2.63;;
8462;SDS011;4268;52.506;13.462;2023-08-07T10:12:32;3.40;;;3.10;;
8462;SDS011;4268;52.506;13.462;2023-08-07T10:15:01;3.10;;;2.80;;
8462;SDS011;4268;52.506;13.462;2023-08-07T10:17:28;3.33;;;2.67;;
8462;SDS011;4268;52.506;13.462;2023-08-07T10:19:55;2.80;;;2.57;;
8462;SDS011;4268;52.506;13.462;2023-08-07T10:22:23;3.63;;;2.80;;
8462;SDS011;4268;52.506;13.462;2023-08-07T10:24:51;2.47;;;2.27;;
8462;SDS011;4268;52.506;13.462;2023-08-07T10:27:19;2.70;;;2.50;;
8462;SDS011;4268;52.506;13.462;2023-08-07T10:29:48;2.30;;;2.20;;
8462;SDS011;4268;52.506;13.462;2023-08-07T10:32:17;2.63;;;2.43;;
8462;SDS011;4268;52.506;13.462;2023-08-07T10:34:51;3.27;;;3.07;;
8462;SDS011;4268;52.506;13.462;2023-08-07T10:37:52;2.70;;;2.57;;
8462;SDS011;4268;52.506;13.462;2023-08-07T10:40:10;2.80;;;2.27;;
8462;SDS011;4268;52.506;13.462;2023-08-07T10:42:56;3.50;;;2.40;;
8462;SDS011;4268;52.506;13.462;2023-08-07T10:45:23;3.30;;;2.30;;
8462;SDS011;4268;52.506;13.462;2023-08-07T10:47:56;2.70;;;2.50;;
8462;SDS011;4268;52.506;13.462;2023-08-07T10:50:31;2.87;;;2.20;;
8462;SDS011;4268;52.506;13.462;2023-08-07T10:53:01;2.50;;;2.30;;
8462;SDS011;4268;52.506;13.462;2023-08-07T10:55:33;3.07;;;2.60;;
8462;SDS011;4268;52.506;13.462;2023-08-07T10:58:24;2.50;;;2.30;;
8462;SDS011;4268;52.506;13.462;2023-08-07T11:00:52;3.20;;;2.57;;
8462;SDS011;4268;52.506;13.462;2023-08-07T11:03:50;2.53;;;2.20;;
8462;SDS011;4268;52.506;13.462;2023-08-07T11:06:24;2.97;;;2.33;;
8462;SDS011;4268;52.506;13.462;2023-08-07T11:08:51;2.43;;;2.33;;
8462;SDS011;4268;52.506;13.462;2023-08-07T11:11:17;2.40;;;2.30;;
8462;SDS011;4268;52.506;13.462;2023-08-07T11:13:43;5.20;;;2.40;;
8462;SDS011;4268;52.506;13.462;2023-08-07T11:16:09;2.47;;;2.27;;
8462;SDS011;4268;52.506;13.462;2023-08-07T11:18:36;2.70;;;2.50;;
8462;SDS011;4268;52.506;13.462;2023-08-07T11:21:05;3.43;;;2.97;;
8462;SDS011;4268;52.506;13.462;2023-08-07T11:23:38;3.00;;;2.80;;
8462;SDS011;4268;52.506;13.462;2023-08-07T11:26:04;3.30;;;3.00;;
8462;SDS011;4268;52.506;13.462;2023-08-07T11:28:30;2.93;;;2.73;;
8462;SDS011;4268;52.506;13.462;2023-08-07T11:30:56;3.60;;;3.30;;
8462;SDS011;4268;52.506;13.462;2023-08-07T11:33:26;3.10;;;2.80;;
8462;SDS011;4268;52.506;13.462;2023-08-07T11:35:54;3.00;;;2.77;;
8462;SDS011;4268;52.506;13.462;2023-08-07T11:41:03;3.00;;;2.70;;
8462;SDS011;4268;52.506;13.462;2023-08-07T11:43:31;3.27;;;3.07;;
8462;SDS011;4268;52.506;13.462;2023-08-07T11:45:58;3.13;;;2.80;;
8462;SDS011;4268;52.506;13.462;2023-08-07T11:48:26;3.67;;;3.17;;
8462;SDS011;4268;52.506;13.462;2023-08-07T11:50:53;3.27;;;2.90;;
8462;SDS011;4268;52.506;13.462;2023-08-07T11:53:20;3.13;;;2.80;;
8462;SDS011;4268;52.506;13.462;2023-08-07T11:55:55;3.13;;;2.93;;
8462;SDS011;4268;52.506;13.462;2023-08-07T11:58:23;3.13;;;2.80;;
8462;SDS011;4268;52.506;13.462;2023-08-07T12:00:50;3.40;;;3.10;;
8462;SDS011;4268;52.506;13.462;2023-08-07T12:03:24;2.90;;;2.70;;
8462;SDS011;4268;52.506;13.462;2023-08-07T12:05:51;2.97;;;2.77;;
8462;SDS011;4268;52.506;13.462;2023-08-07T12:08:17;3.23;;;2.90;;
8462;SDS011;4268;52.506;13.462;2023-08-07T12:10:43;2.80;;;2.60;;
8462;SDS011;4268;52.506;13.462;2023-08-07T12:13:09;2.80;;;2.60;;
8462;SDS011;4268;52.506;13.462;2023-08-07T12:15:37;3.10;;;2.90;;
8462;SDS011;4268;52.506;13.462;2023-08-07T12:18:08;3.23;;;2.90;;
8462;SDS011;4268;52.506;13.462;2023-08-07T12:20:34;2.80;;;2.60;;
8462;SDS011;4268;52.506;13.462;2023-08-07T12:22:59;3.10;;;2.90;;
8462;SDS011;4268;52.506;13.462;2023-08-07T12:25:25;3.07;;;2.80;;
8462;SDS011;4268;52.506;13.462;2023-08-07T12:27:50;3.20;;;3.00;;
8462;SDS011;4268;52.506;13.462;2023-08-07T12:30:17;3.53;;;3.00;;
8462;SDS011;4268;52.506;13.462;2023-08-07T12:32:43;3.40;;;3.20;;
8462;SDS011;4268;52.506;13.462;2023-08-07T12:35:08;3.20;;;3.00;;
8462;SDS011;4268;52.506;13.462;2023-08-07T12:37:34;3.23;;;3.03;;
8462;SDS011;4268;52.506;13.462;2023-08-07T12:39:59;3.73;;;2.90;;
8462;SDS011;4268;52.506;13.462;2023-08-07T12:42:25;3.30;;;2.97;;
8462;SDS011;4268;52.506;13.462;2023-08-07T12:44:50;3.57;;;3.00;;
8462;SDS011;4268;52.506;13.462;2023-08-07T12:47:16;3.67;;;3.07;;
8462;SDS011;4268;52.506;13.462;2023-08-07T12:49:41;3.63;;;3.10;;
8462;SDS011;4268;52.506;13.462;2023-08-07T12:52:12;3.77;;;3.20;;
8462;SDS011;4268;52.506;13.462;2023-08-07T12:54:38;3.90;;;3.17;;
8462;SDS011;4268;52.506;13.462;2023-08-07T12:57:03;4.10;;;3.30;;
8462;SDS011;4268;52.506;13.462;2023-08-07T12:59:29;4.40;;;2.97;;
8462;SDS011;4268;52.506;13.462;2023-08-07T13:01:54;4.53;;;3.50;;
8462;SDS011;4268;52.506;13.462;2023-08-07T13:04:20;4.00;;;3.20;;
8462;SDS011;4268;52.506;13.462;2023-08-07T13:06:46;5.00;;;3.37;;
8462;SDS011;4268;52.506;13.462;2023-08-07T13:09:11;3.47;;;3.10;;
8462;SDS011;4268;52.506;13.462;2023-08-07T13:11:37;3.97;;;3.57;;
8462;SDS011;4268;52.506;13.462;2023-08-07T13:14:02;3.70;;;3.30;;
8462;SDS011;4268;52.506;13.462;2023-08-07T13:16:28;3.57;;;3.20;;
8462;SDS011;4268;52.506;13.462;2023-08-07T13:18:53;4.93;;;3.00;;
8462;SDS011;4268;52.506;13.462;2023-08-07T13:21:19;4.23;;;3.10;;
8462;SDS011;4268;52.506;13.462;2023-08-07T13:23:45;4.00;;;3.07;;
8462;SDS011;4268;52.506;13.462;2023-08-07T13:26:10;3.20;;;2.90;;
8462;SDS011;4268;52.506;13.462;2023-08-07T13:28:36;3.83;;;2.73;;
8462;SDS011;4268;52.506;13.462;2023-08-07T13:31:02;4.73;;;2.83;;
8462;SDS011;4268;52.506;13.462;2023-08-07T13:33:28;4.50;;;2.90;;
8462;SDS011;4268;52.506;13.462;2023-08-07T13:35:53;3.70;;;2.83;;
8462;SDS011;4268;52.506;13.462;2023-08-07T13:38:19;5.70;;;2.60;;
8462;SDS011;4268;52.506;13.462;2023-08-07T13:40:45;4.40;;;2.93;;
8462;SDS011;4268;52.506;13.462;2023-08-07T13:43:11;5.07;;;2.50;;
8462;SDS011;4268;52.506;13.462;2023-08-07T13:45:36;3.13;;;2.83;;
8462;SDS011;4268;52.506;13.462;2023-08-07T13:48:03;3.03;;;2.60;;
8462;SDS011;4268;52.506;13.462;2023-08-07T13:50:29;3.70;;;2.83;;
8462;SDS011;4268;52.506;13.462;2023-08-07T13:52:55;3.27;;;2.60;;
8462;SDS011;4268;52.506;13.462;2023-08-07T13:55:21;4.20;;;2.70;;
8462;SDS011;4268;52.506;13.462;2023-08-07T13:57:46;3.50;;;2.80;;
8462;SDS011;4268;52.506;13.462;2023-08-07T14:00:12;3.43;;;2.60;;
8462;SDS011;4268;52.506;13.462;2023-08-07T14:02:38;3.83;;;2.73;;
8462;SDS011;4268;52.506;13.462;2023-08-07T14:05:04;4.87;;;3.10;;
8462;SDS011;4268;52.506;13.462;2023-08-07T14:07:30;3.53;;;3.20;;
8462;SDS011;4268;52.506;13.462;2023-08-07T14:09:55;4.70;;;3.33;;
8462;SDS011;4268;52.506;13.462;2023-08-07T14:12:21;3.37;;;3.07;;
8462;SDS011;4268;52.506;13.462;2023-08-07T14:14:47;4.63;;;3.20;;
8462;SDS011;4268;52.506;13.462;2023-08-07T14:17:12;5.00;;;4.47;;
8462;SDS011;4268;52.506;13.462;2023-08-07T14:19:38;3.10;;;2.90;;
8462;SDS011;4268;52.506;13.462;2023-08-07T14:22:03;4.03;;;3.23;;
8462;SDS011;4268;52.506;13.462;2023-08-07T14:24:29;4.07;;;3.20;;
8462;SDS011;4268;52.506;13.462;2023-08-07T14:26:55;4.90;;;3.50;;
8462;SDS011;4268;52.506;13.462;2023-08-07T14:29:21;3.60;;;3.30;;
8462;SDS011;4268;52.506;13.462;2023-08-07T14:31:46;3.97;;;3.57;;
8462;SDS011;4268;52.506;13.462;2023-08-07T14:34:12;3.77;;;3.30;;
8462;SDS011;4268;52.506;13.462;2023-08-07T14:36:38;3.70;;;3.40;;
8462;SDS011;4268;52.506;13.462;2023-08-07T14:39:07;3.60;;;3.30;;
8462;SDS011;4268;52.506;13.462;2023-08-07T14:41:37;3.27;;;2.80;;
8462;SDS011;4268;52.506;13.462;2023-08-07T14:44:05;3.60;;;3.30;;
8462;SDS011;4268;52.506;13.462;2023-08-07T14:46:32;4.77;;;3.20;;
8462;SDS011;4268;52.506;13.462;2023-08-07T14:48:58;3.87;;;3.23;;
8462;SDS011;4268;52.506;13.462;2023-08-07T14:51:24;3.93;;;3.30;;
8462;SDS011;4268;52.506;13.462;2023-08-07T14:53:52;4.00;;;3.07;;
8462;SDS011;4268;52.506;13.462;2023-08-07T14:56:18;5.27;;;3.60;;
8462;SDS011;4268;52.506;13.462;2023-08-07T14:58:43;4.33;;;3.10;;
8462;SDS011;4268;52.506;13.462;2023-08-07T15:01:09;3.83;;;2.90;;
8462;SDS011;4268;52.506;13.462;2023-08-07T15:03:34;5.30;;;3.10;;
8462;SDS011;4268;52.506;13.462;2023-08-07T15:06:00;4.40;;;3.40;;
8462;SDS011;4268;52.506;13.462;2023-08-07T15:08:25;4.07;;;3.67;;